sensor_id;sensor_type;location;lat;lon;timestamp;temperature;humidity
42095;DHT22;27753;55.724;37.612;2023-04-06T00:01:40;6.30;92.50
42095;DHT22;27753;55.724;37.612;2023-04-06T00:04:06;6.30;92.50
42095;DHT22;27753;55.724;37.612;2023-04-06T00:06:33;6.30;92.50
42095;DHT22;27753;55.724;37.612;2023-04-06T00:09:00;6.30;92.60
42095;DHT22;27753;55.724;37.612;2023-04-06T00:11:26;6.20;92.60
42095;DHT22;27753;55.724;37.612;2023-04-06T00:13:52;6.20;92.60
42095;DHT22;27753;55.724;37.612;2023-04-06T00:16:20;6.20;92.70
42095;DHT22;27753;55.724;37.612;2023-04-06T00:18:46;6.10;92.70
42095;DHT22;27753;55.724;37.612;2023-04-06T00:21:13;6.10;92.70
42095;DHT22;27753;55.724;37.612;2023-04-06T00:23:40;6.10;92.80
42095;DHT22;27753;55.724;37.612;2023-04-06T00:26:07;6.10;92.80
42095;DHT22;27753;55.724;37.612;2023-04-06T00:28:33;6.10;92.80
42095;DHT22;27753;55.724;37.612;2023-04-06T00:30:59;6.10;92.90
42095;DHT22;27753;55.724;37.612;2023-04-06T00:33:25;6.10;93.00
42095;DHT22;27753;55.724;37.612;2023-04-06T00:35:51;6.10;93.10
42095;DHT22;27753;55.724;37.612;2023-04-06T00:38:18;6.10;93.10
42095;DHT22;27753;55.724;37.612;2023-04-06T00:40:44;6.10;93.10
42095;DHT22;27753;55.724;37.612;2023-04-06T00:43:11;6.10;93.10
42095;DHT22;27753;55.724;37.612;2023-04-06T00:45:40;6.00;93.10
42095;DHT22;27753;55.724;37.612;2023-04-06T00:48:07;6.00;93.20
42095;DHT22;27753;55.724;37.612;2023-04-06T00:50:33;6.00;93.30
42095;DHT22;27753;55.724;37.612;2023-04-06T00:53:00;6.00;93.30
42095;DHT22;27753;55.724;37.612;2023-04-06T00:55:29;6.00;93.20
42095;DHT22;27753;55.724;37.612;2023-04-06T00:57:57;6.00;93.20
42095;DHT22;27753;55.724;37.612;2023-04-06T01:00:24;6.00;93.30
42095;DHT22;27753;55.724;37.612;2023-04-06T01:02:56;5.90;93.30
42095;DHT22;27753;55.724;37.612;2023-04-06T01:05:22;5.90;93.70
42095;DHT22;27753;55.724;37.612;2023-04-06T01:07:48;5.90;93.40
42095;DHT22;27753;55.724;37.612;2023-04-06T01:10:24;5.90;93.40
42095;DHT22;27753;55.724;37.612;2023-04-06T01:13:06;5.90;93.60
42095;DHT22;27753;55.724;37.612;2023-04-06T01:15:44;5.90;93.60
42095;DHT22;27753;55.724;37.612;2023-04-06T01:18:10;5.80;93.70
42095;DHT22;27753;55.724;37.612;2023-04-06T01:20:36;5.80;93.70
42095;DHT22;27753;55.724;37.612;2023-04-06T01:23:02;5.80;93.70
42095;DHT22;27753;55.724;37.612;2023-04-06T01:25:28;5.80;93.80
42095;DHT22;27753;55.724;37.612;2023-04-06T01:27:54;5.70;93.80
42095;DHT22;27753;55.724;37.612;2023-04-06T01:30:20;5.70;94.10
42095;DHT22;27753;55.724;37.612;2023-04-06T01:32:46;5.60;94.00
42095;DHT22;27753;55.724;37.612;2023-04-06T01:35:19;5.60;94.00
42095;DHT22;27753;55.724;37.612;2023-04-06T01:37:45;5.60;94.10
42095;DHT22;27753;55.724;37.612;2023-04-06T01:40:11;5.50;94.30
42095;DHT22;27753;55.724;37.612;2023-04-06T01:42:37;5.50;94.20
42095;DHT22;27753;55.724;37.612;2023-04-06T01:45:03;5.50;94.40
42095;DHT22;27753;55.724;37.612;2023-04-06T01:47:29;5.50;94.40
42095;DHT22;27753;55.724;37.612;2023-04-06T01:49:56;5.50;94.70
42095;DHT22;27753;55.724;37.612;2023-04-06T01:52:22;5.40;94.40
42095;DHT22;27753;55.724;37.612;2023-04-06T01:54:48;5.40;94.40
42095;DHT22;27753;55.724;37.612;2023-04-06T01:57:14;5.40;94.50
42095;DHT22;27753;55.724;37.612;2023-04-06T01:59:39;5.40;94.60
42095;DHT22;27753;55.724;37.612;2023-04-06T02:02:05;5.40;94.60
42095;DHT22;27753;55.724;37.612;2023-04-06T02:04:31;5.40;94.70
42095;DHT22;27753;55.724;37.612;2023-04-06T02:06:57;5.30;94.70
42095;DHT22;27753;55.724;37.612;2023-04-06T02:09:23;5.30;94.70
42095;DHT22;27753;55.724;37.612;2023-04-06T02:11:49;5.40;94.80
42095;DHT22;27753;55.724;37.612;2023-04-06T02:14:15;5.30;94.80
42095;DHT22;27753;55.724;37.612;2023-04-06T02:16:41;5.30;94.80
42095;DHT22;27753;55.724;37.612;2023-04-06T02:19:06;5.20;94.90
42095;DHT22;27753;55.724;37.612;2023-04-06T02:21:33;5.30;95.00
42095;DHT22;27753;55.724;37.612;2023-04-06T02:23:59;5.30;95.00
42095;DHT22;27753;55.724;37.612;2023-04-06T02:26:25;5.20;94.90
42095;DHT22;27753;55.724;37.612;2023-04-06T02:28:51;5.20;94.90
42095;DHT22;27753;55.724;37.612;2023-04-06T02:31:17;5.20;95.10
42095;DHT22;27753;55.724;37.612;2023-04-06T02:33:43;5.10;95.10
42095;DHT22;27753;55.724;37.612;2023-04-06T02:36:09;5.10;95.10
42095;DHT22;27753;55.724;37.612;2023-04-06T02:38:35;5.10;95.10
42095;DHT22;27753;55.724;37.612;2023-04-06T02:41:01;5.10;95.20
42095;DHT22;27753;55.724;37.612;2023-04-06T02:43:27;5.10;95.10
42095;DHT22;27753;55.724;37.612;2023-04-06T02:45:52;5.10;95.20
42095;DHT22;27753;55.724;37.612;2023-04-06T02:48:18;5.10;95.10
42095;DHT22;27753;55.724;37.612;2023-04-06T02:50:44;5.10;95.10
42095;DHT22;27753;55.724;37.612;2023-04-06T02:53:10;5.10;95.20
42095;DHT22;27753;55.724;37.612;2023-04-06T02:55:36;5.10;95.20
42095;DHT22;27753;55.724;37.612;2023-04-06T02:58:02;5.10;95.20
42095;DHT22;27753;55.724;37.612;2023-04-06T03:00:28;5.10;95.20
42095;DHT22;27753;55.724;37.612;2023-04-06T03:02:54;5.10;95.10
42095;DHT22;27753;55.724;37.612;2023-04-06T03:05:20;5.10;95.10
42095;DHT22;27753;55.724;37.612;2023-04-06T03:07:46;5.10;95.10
42095;DHT22;27753;55.724;37.612;2023-04-06T03:10:12;5.10;95.10
42095;DHT22;27753;55.724;37.612;2023-04-06T03:12:38;5.10;95.20
42095;DHT22;27753;55.724;37.612;2023-04-06T03:15:04;5.10;95.10
42095;DHT22;27753;55.724;37.612;2023-04-06T03:17:30;5.20;95.10
42095;DHT22;27753;55.724;37.612;2023-04-06T03:19:56;5.20;95.00
42095;DHT22;27753;55.724;37.612;2023-04-06T03:22:22;5.20;95.00
42095;DHT22;27753;55.724;37.612;2023-04-06T03:24:48;5.30;94.90
42095;DHT22;27753;55.724;37.612;2023-04-06T03:27:14;5.30;94.80
42095;DHT22;27753;55.724;37.612;2023-04-06T03:29:40;5.40;94.70
42095;DHT22;27753;55.724;37.612;2023-04-06T03:32:06;5.40;94.70
42095;DHT22;27753;55.724;37.612;2023-04-06T03:34:31;5.40;94.70
42095;DHT22;27753;55.724;37.612;2023-04-06T03:36:57;5.50;94.60
42095;DHT22;27753;55.724;37.612;2023-04-06T03:39:23;5.50;94.50
42095;DHT22;27753;55.724;37.612;2023-04-06T03:41:49;5.50;94.40
42095;DHT22;27753;55.724;37.612;2023-04-06T03:44:15;5.50;94.40
42095;DHT22;27753;55.724;37.612;2023-04-06T03:46:42;5.60;94.30
42095;DHT22;27753;55.724;37.612;2023-04-06T03:49:08;5.60;94.10
42095;DHT22;27753;55.724;37.612;2023-04-06T03:51:36;5.60;94.00
42095;DHT22;27753;55.724;37.612;2023-04-06T03:54:02;5.70;93.90
42095;DHT22;27753;55.724;37.612;2023-04-06T03:56:28;5.70;93.80
42095;DHT22;27753;55.724;37.612;2023-04-06T03:58:53;5.70;93.80
42095;DHT22;27753;55.724;37.612;2023-04-06T04:01:19;5.70;93.70
42095;DHT22;27753;55.724;37.612;2023-04-06T04:03:45;5.70;93.90
42095;DHT22;27753;55.724;37.612;2023-04-06T04:06:11;5.80;93.80
42095;DHT22;27753;55.724;37.612;2023-04-06T04:08:37;5.80;93.70
42095;DHT22;27753;55.724;37.612;2023-04-06T04:11:03;5.80;93.70
42095;DHT22;27753;55.724;37.612;2023-04-06T04:13:29;5.90;93.60
42095;DHT22;27753;55.724;37.612;2023-04-06T04:15:55;6.00;93.40
42095;DHT22;27753;55.724;37.612;2023-04-06T04:18:23;6.00;93.20
42095;DHT22;27753;55.724;37.612;2023-04-06T04:20:49;6.10;93.10
42095;DHT22;27753;55.724;37.612;2023-04-06T04:23:15;6.00;93.10
42095;DHT22;27753;55.724;37.612;2023-04-06T04:25:41;6.20;93.00
42095;DHT22;27753;55.724;37.612;2023-04-06T04:28:07;6.40;92.80
42095;DHT22;27753;55.724;37.612;2023-04-06T04:30:33;6.60;92.10
42095;DHT22;27753;55.724;37.612;2023-04-06T04:32:59;6.90;91.90
42095;DHT22;27753;55.724;37.612;2023-04-06T04:35:25;7.30;91.20
42095;DHT22;27753;55.724;37.612;2023-04-06T04:37:52;7.70;90.50
42095;DHT22;27753;55.724;37.612;2023-04-06T04:40:17;7.80;89.80
42095;DHT22;27753;55.724;37.612;2023-04-06T04:42:43;8.10;89.10
42095;DHT22;27753;55.724;37.612;2023-04-06T04:45:10;8.40;87.70
42095;DHT22;27753;55.724;37.612;2023-04-06T04:47:38;8.50;86.90
42095;DHT22;27753;55.724;37.612;2023-04-06T04:50:05;8.60;86.00
42095;DHT22;27753;55.724;37.612;2023-04-06T04:52:31;8.70;85.80
42095;DHT22;27753;55.724;37.612;2023-04-06T04:54:57;9.00;84.50
42095;DHT22;27753;55.724;37.612;2023-04-06T04:57:23;8.80;83.50
42095;DHT22;27753;55.724;37.612;2023-04-06T04:59:50;8.50;83.60
42095;DHT22;27753;55.724;37.612;2023-04-06T05:02:16;8.10;85.60
42095;DHT22;27753;55.724;37.612;2023-04-06T05:04:46;7.80;86.30
42095;DHT22;27753;55.724;37.612;2023-04-06T05:07:12;7.50;87.50
42095;DHT22;27753;55.724;37.612;2023-04-06T05:09:38;7.20;89.00
42095;DHT22;27753;55.724;37.612;2023-04-06T05:12:05;7.10;89.30
42095;DHT22;27753;55.724;37.612;2023-04-06T05:14:31;7.00;89.10
42095;DHT22;27753;55.724;37.612;2023-04-06T05:16:57;6.90;89.50
42095;DHT22;27753;55.724;37.612;2023-04-06T05:19:23;7.00;90.20
42095;DHT22;27753;55.724;37.612;2023-04-06T05:21:49;7.40;89.70
42095;DHT22;27753;55.724;37.612;2023-04-06T05:24:16;7.60;88.10
42095;DHT22;27753;55.724;37.612;2023-04-06T05:26:41;7.70;87.70
42095;DHT22;27753;55.724;37.612;2023-04-06T05:29:07;7.60;87.60
42095;DHT22;27753;55.724;37.612;2023-04-06T05:31:35;7.50;87.40
42095;DHT22;27753;55.724;37.612;2023-04-06T05:34:01;7.30;88.40
42095;DHT22;27753;55.724;37.612;2023-04-06T05:36:27;7.20;89.10
42095;DHT22;27753;55.724;37.612;2023-04-06T05:38:53;7.20;89.60
42095;DHT22;27753;55.724;37.612;2023-04-06T05:41:20;7.30;89.10
42095;DHT22;27753;55.724;37.612;2023-04-06T05:43:46;7.20;89.30
42095;DHT22;27753;55.724;37.612;2023-04-06T05:46:12;7.20;89.60
42095;DHT22;27753;55.724;37.612;2023-04-06T05:48:38;7.20;89.60
42095;DHT22;27753;55.724;37.612;2023-04-06T05:51:04;7.20;89.10
42095;DHT22;27753;55.724;37.612;2023-04-06T05:53:32;7.30;89.10
42095;DHT22;27753;55.724;37.612;2023-04-06T05:56:01;7.40;88.80
42095;DHT22;27753;55.724;37.612;2023-04-06T05:58:27;7.50;89.10
42095;DHT22;27753;55.724;37.612;2023-04-06T06:00:58;7.70;88.60
42095;DHT22;27753;55.724;37.612;2023-04-06T06:03:24;7.70;87.70
42095;DHT22;27753;55.724;37.612;2023-04-06T06:05:50;8.10;87.60
42095;DHT22;27753;55.724;37.612;2023-04-06T06:08:16;9.40;86.90
42095;DHT22;27753;55.724;37.612;2023-04-06T06:10:42;11.30;81.60
42095;DHT22;27753;55.724;37.612;2023-04-06T06:13:08;13.00;75.60
42095;DHT22;27753;55.724;37.612;2023-04-06T06:15:34;14.50;70.50
42095;DHT22;27753;55.724;37.612;2023-04-06T06:18:00;16.00;65.20
42095;DHT22;27753;55.724;37.612;2023-04-06T06:22:53;17.30;58.40
42095;DHT22;27753;55.724;37.612;2023-04-06T06:25:19;18.20;56.60
42095;DHT22;27753;55.724;37.612;2023-04-06T06:27:45;18.70;53.00
42095;DHT22;27753;55.724;37.612;2023-04-06T06:30:11;18.90;53.20
42095;DHT22;27753;55.724;37.612;2023-04-06T06:32:37;19.40;51.40
42095;DHT22;27753;55.724;37.612;2023-04-06T06:35:03;19.50;50.50
42095;DHT22;27753;55.724;37.612;2023-04-06T06:37:29;19.90;49.60
42095;DHT22;27753;55.724;37.612;2023-04-06T06:39:55;20.10;48.10
42095;DHT22;27753;55.724;37.612;2023-04-06T06:42:21;20.00;48.60
42095;DHT22;27753;55.724;37.612;2023-04-06T06:44:47;20.70;47.80
42095;DHT22;27753;55.724;37.612;2023-04-06T06:49:39;21.10;45.70
42095;DHT22;27753;55.724;37.612;2023-04-06T06:52:05;21.40;45.80
42095;DHT22;27753;55.724;37.612;2023-04-06T06:54:31;20.50;46.10
42095;DHT22;27753;55.724;37.612;2023-04-06T06:56:57;20.70;45.80
42095;DHT22;27753;55.724;37.612;2023-04-06T06:59:23;21.10;45.10
42095;DHT22;27753;55.724;37.612;2023-04-06T07:01:49;21.30;44.60
42095;DHT22;27753;55.724;37.612;2023-04-06T07:04:15;21.30;43.90
42095;DHT22;27753;55.724;37.612;2023-04-06T07:06:41;20.10;45.00
42095;DHT22;27753;55.724;37.612;2023-04-06T07:09:07;19.50;46.80
42095;DHT22;27753;55.724;37.612;2023-04-06T07:11:33;19.80;46.90
42095;DHT22;27753;55.724;37.612;2023-04-06T07:13:59;21.00;45.60
42095;DHT22;27753;55.724;37.612;2023-04-06T07:16:25;21.20;44.50
42095;DHT22;27753;55.724;37.612;2023-04-06T07:18:51;20.60;44.70
42095;DHT22;27753;55.724;37.612;2023-04-06T07:21:17;20.70;44.70
42095;DHT22;27753;55.724;37.612;2023-04-06T07:23:43;20.90;44.50
42095;DHT22;27753;55.724;37.612;2023-04-06T07:26:09;20.70;44.20
42095;DHT22;27753;55.724;37.612;2023-04-06T07:28:35;20.80;44.40
42095;DHT22;27753;55.724;37.612;2023-04-06T07:31:01;20.40;44.90
42095;DHT22;27753;55.724;37.612;2023-04-06T07:33:27;21.00;44.60
42095;DHT22;27753;55.724;37.612;2023-04-06T07:35:56;21.50;43.10
42095;DHT22;27753;55.724;37.612;2023-04-06T07:38:22;21.40;42.70
42095;DHT22;27753;55.724;37.612;2023-04-06T07:40:48;20.70;43.70
42095;DHT22;27753;55.724;37.612;2023-04-06T07:43:14;21.00;43.50
42095;DHT22;27753;55.724;37.612;2023-04-06T07:45:41;21.60;42.70
42095;DHT22;27753;55.724;37.612;2023-04-06T07:48:07;21.10;43.00
42095;DHT22;27753;55.724;37.612;2023-04-06T07:50:33;21.10;43.10
42095;DHT22;27753;55.724;37.612;2023-04-06T07:52:59;21.80;42.70
42095;DHT22;27753;55.724;37.612;2023-04-06T07:55:26;22.20;41.80
42095;DHT22;27753;55.724;37.612;2023-04-06T07:57:52;22.90;40.90
42095;DHT22;27753;55.724;37.612;2023-04-06T08:00:18;23.50;39.90
42095;DHT22;27753;55.724;37.612;2023-04-06T08:02:44;22.70;39.80
42095;DHT22;27753;55.724;37.612;2023-04-06T08:05:10;22.50;40.80
42095;DHT22;27753;55.724;37.612;2023-04-06T08:07:36;22.50;41.00
42095;DHT22;27753;55.724;37.612;2023-04-06T08:10:02;23.10;40.20
42095;DHT22;27753;55.724;37.612;2023-04-06T08:12:28;23.60;39.20
42095;DHT22;27753;55.724;37.612;2023-04-06T08:14:57;23.20;39.70
42095;DHT22;27753;55.724;37.612;2023-04-06T08:17:43;23.80;39.40
42095;DHT22;27753;55.724;37.612;2023-04-06T08:20:09;25.20;37.30
42095;DHT22;27753;55.724;37.612;2023-04-06T08:22:35;24.80;37.10
42095;DHT22;27753;55.724;37.612;2023-04-06T08:25:01;24.70;37.20
42095;DHT22;27753;55.724;37.612;2023-04-06T08:59:19;25.10;36.30
42095;DHT22;27753;55.724;37.612;2023-04-06T09:01:45;23.70;37.10
42095;DHT22;27753;55.724;37.612;2023-04-06T09:04:12;23.00;38.20
42095;DHT22;27753;55.724;37.612;2023-04-06T09:06:38;22.80;38.60
42095;DHT22;27753;55.724;37.612;2023-04-06T09:09:06;22.60;38.80
42095;DHT22;27753;55.724;37.612;2023-04-06T09:12:01;23.10;38.00
42095;DHT22;27753;55.724;37.612;2023-04-06T09:14:38;23.00;38.70
42095;DHT22;27753;55.724;37.612;2023-04-06T09:17:06;24.00;37.40
42095;DHT22;27753;55.724;37.612;2023-04-06T09:19:32;24.00;36.80
42095;DHT22;27753;55.724;37.612;2023-04-06T09:22:05;24.80;36.00
42095;DHT22;27753;55.724;37.612;2023-04-06T09:24:52;24.90;35.60
42095;DHT22;27753;55.724;37.612;2023-04-06T09:27:30;25.10;35.70
42095;DHT22;27753;55.724;37.612;2023-04-06T09:30:10;26.20;34.90
42095;DHT22;27753;55.724;37.612;2023-04-06T09:32:46;25.70;34.90
42095;DHT22;27753;55.724;37.612;2023-04-06T09:35:13;25.90;34.30
42095;DHT22;27753;55.724;37.612;2023-04-06T09:37:40;26.10;34.20
42095;DHT22;27753;55.724;37.612;2023-04-06T09:40:07;25.90;34.60
42095;DHT22;27753;55.724;37.612;2023-04-06T09:42:34;26.00;34.00
42095;DHT22;27753;55.724;37.612;2023-04-06T09:45:00;25.30;34.70
42095;DHT22;27753;55.724;37.612;2023-04-06T09:47:30;25.40;35.90
42095;DHT22;27753;55.724;37.612;2023-04-06T09:49:59;26.00;34.00
42095;DHT22;27753;55.724;37.612;2023-04-06T09:52:41;25.60;34.40
42095;DHT22;27753;55.724;37.612;2023-04-06T09:55:08;25.80;34.20
42095;DHT22;27753;55.724;37.612;2023-04-06T10:00:05;26.20;34.60
42095;DHT22;27753;55.724;37.612;2023-04-06T10:03:02;26.40;33.30
42095;DHT22;27753;55.724;37.612;2023-04-06T10:05:46;26.30;33.40
42095;DHT22;27753;55.724;37.612;2023-04-06T10:08:16;25.30;33.30
42095;DHT22;27753;55.724;37.612;2023-04-06T10:10:43;24.70;34.20
42095;DHT22;27753;55.724;37.612;2023-04-06T10:13:11;24.70;35.20
42095;DHT22;27753;55.724;37.612;2023-04-06T10:15:38;24.40;34.60
42095;DHT22;27753;55.724;37.612;2023-04-06T10:18:05;25.20;34.60
42095;DHT22;27753;55.724;37.612;2023-04-06T10:20:53;26.40;33.30
42095;DHT22;27753;55.724;37.612;2023-04-06T10:23:31;25.50;33.40
42095;DHT22;27753;55.724;37.612;2023-04-06T10:26:00;25.10;33.60
42095;DHT22;27753;55.724;37.612;2023-04-06T10:28:34;23.40;34.60
42095;DHT22;27753;55.724;37.612;2023-04-06T10:31:05;21.70;36.90
42095;DHT22;27753;55.724;37.612;2023-04-06T10:33:31;20.10;39.10
42095;DHT22;27753;55.724;37.612;2023-04-06T10:35:57;18.90;41.30
42095;DHT22;27753;55.724;37.612;2023-04-06T10:38:34;18.30;42.30
42095;DHT22;27753;55.724;37.612;2023-04-06T10:41:04;17.50;43.30
42095;DHT22;27753;55.724;37.612;2023-04-06T10:43:33;17.00;43.30
42095;DHT22;27753;55.724;37.612;2023-04-06T10:46:01;16.80;45.00
42095;DHT22;27753;55.724;37.612;2023-04-06T10:51:16;16.20;46.20
42095;DHT22;27753;55.724;37.612;2023-04-06T10:53:45;15.90;46.30
42095;DHT22;27753;55.724;37.612;2023-04-06T10:56:16;15.70;47.20
42095;DHT22;27753;55.724;37.612;2023-04-06T10:58:50;15.60;47.80
42095;DHT22;27753;55.724;37.612;2023-04-06T11:01:20;15.70;48.00
42095;DHT22;27753;55.724;37.612;2023-04-06T11:03:48;15.70;47.90
42095;DHT22;27753;55.724;37.612;2023-04-06T11:06:19;15.70;47.70
42095;DHT22;27753;55.724;37.612;2023-04-06T11:08:46;15.50;48.00
42095;DHT22;27753;55.724;37.612;2023-04-06T11:11:14;15.40;48.50
42095;DHT22;27753;55.724;37.612;2023-04-06T11:13:52;15.30;48.70
42095;DHT22;27753;55.724;37.612;2023-04-06T11:16:19;15.30;48.70
42095;DHT22;27753;55.724;37.612;2023-04-06T11:18:53;15.30;48.60
42095;DHT22;27753;55.724;37.612;2023-04-06T11:21:29;15.10;48.70
42095;DHT22;27753;55.724;37.612;2023-04-06T11:24:12;14.90;49.10
42095;DHT22;27753;55.724;37.612;2023-04-06T11:29:12;14.70;49.00
42095;DHT22;27753;55.724;37.612;2023-04-06T11:31:59;14.70;49.40
42095;DHT22;27753;55.724;37.612;2023-04-06T11:34:27;14.70;49.80
42095;DHT22;27753;55.724;37.612;2023-04-06T11:36:58;14.70;49.90
42095;DHT22;27753;55.724;37.612;2023-04-06T11:39:27;14.70;49.90
42095;DHT22;27753;55.724;37.612;2023-04-06T11:41:56;14.70;49.70
42095;DHT22;27753;55.724;37.612;2023-04-06T11:44:36;14.60;49.80
42095;DHT22;27753;55.724;37.612;2023-04-06T11:47:09;14.70;50.00
42095;DHT22;27753;55.724;37.612;2023-04-06T11:49:40;14.70;50.00
42095;DHT22;27753;55.724;37.612;2023-04-06T11:52:26;14.80;50.10
42095;DHT22;27753;55.724;37.612;2023-04-06T11:54:54;14.80;50.00
42095;DHT22;27753;55.724;37.612;2023-04-06T11:57:24;14.90;49.80
42095;DHT22;27753;55.724;37.612;2023-04-06T11:59:51;14.80;49.90
42095;DHT22;27753;55.724;37.612;2023-04-06T12:02:17;14.80;50.20
42095;DHT22;27753;55.724;37.612;2023-04-06T12:04:44;14.90;50.40
42095;DHT22;27753;55.724;37.612;2023-04-06T12:07:11;14.90;49.90
42095;DHT22;27753;55.724;37.612;2023-04-06T12:09:37;14.90;50.20
42095;DHT22;27753;55.724;37.612;2023-04-06T12:12:04;14.80;50.00
42095;DHT22;27753;55.724;37.612;2023-04-06T12:14:30;14.80;50.10
42095;DHT22;27753;55.724;37.612;2023-04-06T12:16:57;14.80;50.10
42095;DHT22;27753;55.724;37.612;2023-04-06T12:19:24;14.80;49.80
42095;DHT22;27753;55.724;37.612;2023-04-06T12:21:52;14.90;49.70
42095;DHT22;27753;55.724;37.612;2023-04-06T12:24:19;14.90;49.90
42095;DHT22;27753;55.724;37.612;2023-04-06T12:26:45;14.90;49.60
42095;DHT22;27753;55.724;37.612;2023-04-06T12:29:11;14.80;49.90
42095;DHT22;27753;55.724;37.612;2023-04-06T12:31:40;14.70;50.10
42095;DHT22;27753;55.724;37.612;2023-04-06T12:34:10;14.70;50.40
42095;DHT22;27753;55.724;37.612;2023-04-06T12:36:39;14.80;50.70
42095;DHT22;27753;55.724;37.612;2023-04-06T12:39:05;15.00;50.40
42095;DHT22;27753;55.724;37.612;2023-04-06T12:41:31;15.20;50.10
42095;DHT22;27753;55.724;37.612;2023-04-06T12:43:58;15.40;49.40
42095;DHT22;27753;55.724;37.612;2023-04-06T12:46:25;15.50;49.20
42095;DHT22;27753;55.724;37.612;2023-04-06T12:48:51;15.60;48.40
42095;DHT22;27753;55.724;37.612;2023-04-06T12:51:22;15.70;48.80
42095;DHT22;27753;55.724;37.612;2023-04-06T12:53:48;15.50;48.60
42095;DHT22;27753;55.724;37.612;2023-04-06T12:56:18;15.40;48.40
42095;DHT22;27753;55.724;37.612;2023-04-06T12:58:44;15.30;48.80
42095;DHT22;27753;55.724;37.612;2023-04-06T13:01:11;15.10;49.40
42095;DHT22;27753;55.724;37.612;2023-04-06T13:03:39;15.00;49.60
42095;DHT22;27753;55.724;37.612;2023-04-06T13:06:05;15.00;50.00
42095;DHT22;27753;55.724;37.612;2023-04-06T13:08:31;15.00;50.10
42095;DHT22;27753;55.724;37.612;2023-04-06T13:10:57;15.00;50.10
42095;DHT22;27753;55.724;37.612;2023-04-06T13:13:25;14.90;49.90
42095;DHT22;27753;55.724;37.612;2023-04-06T13:15:52;14.80;50.10
42095;DHT22;27753;55.724;37.612;2023-04-06T13:18:18;14.70;50.70
42095;DHT22;27753;55.724;37.612;2023-04-06T13:20:46;14.70;50.80
42095;DHT22;27753;55.724;37.612;2023-04-06T13:23:13;14.60;51.10
42095;DHT22;27753;55.724;37.612;2023-04-06T13:25:39;14.60;51.20
42095;DHT22;27753;55.724;37.612;2023-04-06T13:28:05;14.60;51.30
42095;DHT22;27753;55.724;37.612;2023-04-06T13:30:31;14.60;51.80
42095;DHT22;27753;55.724;37.612;2023-04-06T13:32:57;14.60;51.90
42095;DHT22;27753;55.724;37.612;2023-04-06T13:35:23;14.60;51.80
42095;DHT22;27753;55.724;37.612;2023-04-06T13:37:49;14.60;51.60
42095;DHT22;27753;55.724;37.612;2023-04-06T13:40:18;14.50;51.00
42095;DHT22;27753;55.724;37.612;2023-04-06T13:42:47;14.40;51.20
42095;DHT22;27753;55.724;37.612;2023-04-06T13:45:13;14.40;52.40
42095;DHT22;27753;55.724;37.612;2023-04-06T13:47:39;14.40;51.80
42095;DHT22;27753;55.724;37.612;2023-04-06T13:50:06;14.40;51.70
42095;DHT22;27753;55.724;37.612;2023-04-06T13:52:32;14.40;51.70
42095;DHT22;27753;55.724;37.612;2023-04-06T13:54:58;14.40;51.80
42095;DHT22;27753;55.724;37.612;2023-04-06T13:57:24;14.50;51.70
42095;DHT22;27753;55.724;37.612;2023-04-06T13:59:50;14.60;51.40
42095;DHT22;27753;55.724;37.612;2023-04-06T14:02:16;14.60;51.30
42095;DHT22;27753;55.724;37.612;2023-04-06T14:04:43;14.60;51.90
42095;DHT22;27753;55.724;37.612;2023-04-06T14:07:09;14.50;51.00
42095;DHT22;27753;55.724;37.612;2023-04-06T14:09:35;14.50;50.60
42095;DHT22;27753;55.724;37.612;2023-04-06T14:12:04;14.30;50.60
42095;DHT22;27753;55.724;37.612;2023-04-06T14:14:30;14.20;51.10
42095;DHT22;27753;55.724;37.612;2023-04-06T14:16:56;14.20;51.80
42095;DHT22;27753;55.724;37.612;2023-04-06T14:19:22;14.20;50.90
42095;DHT22;27753;55.724;37.612;2023-04-06T14:21:48;14.10;50.80
42095;DHT22;27753;55.724;37.612;2023-04-06T14:24:15;14.10;50.70
42095;DHT22;27753;55.724;37.612;2023-04-06T14:26:48;14.00;50.30
42095;DHT22;27753;55.724;37.612;2023-04-06T14:29:14;14.00;50.10
42095;DHT22;27753;55.724;37.612;2023-04-06T14:31:41;14.00;49.80
42095;DHT22;27753;55.724;37.612;2023-04-06T14:34:07;13.90;49.50
42095;DHT22;27753;55.724;37.612;2023-04-06T14:36:33;13.90;49.50
42095;DHT22;27753;55.724;37.612;2023-04-06T14:39:04;13.90;49.20
42095;DHT22;27753;55.724;37.612;2023-04-06T14:41:32;13.90;49.00
42095;DHT22;27753;55.724;37.612;2023-04-06T14:44:01;13.80;49.20
42095;DHT22;27753;55.724;37.612;2023-04-06T14:46:32;13.80;49.00
42095;DHT22;27753;55.724;37.612;2023-04-06T14:49:06;13.80;48.50
42095;DHT22;27753;55.724;37.612;2023-04-06T14:51:43;13.70;48.40
42095;DHT22;27753;55.724;37.612;2023-04-06T14:54:12;13.70;48.10
42095;DHT22;27753;55.724;37.612;2023-04-06T14:56:38;13.60;48.00
42095;DHT22;27753;55.724;37.612;2023-04-06T14:59:04;13.50;47.90
42095;DHT22;27753;55.724;37.612;2023-04-06T15:01:34;13.50;48.10
42095;DHT22;27753;55.724;37.612;2023-04-06T15:04:03;13.50;48.20
42095;DHT22;27753;55.724;37.612;2023-04-06T15:06:28;13.50;48.00
42095;DHT22;27753;55.724;37.612;2023-04-06T15:08:55;13.40;47.40
42095;DHT22;27753;55.724;37.612;2023-04-06T15:11:21;13.40;47.50
42095;DHT22;27753;55.724;37.612;2023-04-06T15:13:47;13.40;47.90
42095;DHT22;27753;55.724;37.612;2023-04-06T15:16:13;13.30;47.90
42095;DHT22;27753;55.724;37.612;2023-04-06T15:18:40;13.30;47.70
42095;DHT22;27753;55.724;37.612;2023-04-06T15:21:07;13.20;47.80
42095;DHT22;27753;55.724;37.612;2023-04-06T15:23:33;13.20;47.70
42095;DHT22;27753;55.724;37.612;2023-04-06T15:26:02;13.20;48.10
42095;DHT22;27753;55.724;37.612;2023-04-06T15:28:29;13.10;48.10
42095;DHT22;27753;55.724;37.612;2023-04-06T15:30:55;13.10;48.10
42095;DHT22;27753;55.724;37.612;2023-04-06T15:33:24;13.00;48.00
42095;DHT22;27753;55.724;37.612;2023-04-06T15:35:50;13.00;47.90
42095;DHT22;27753;55.724;37.612;2023-04-06T15:38:16;13.00;48.10
42095;DHT22;27753;55.724;37.612;2023-04-06T15:40:46;12.90;48.20
42095;DHT22;27753;55.724;37.612;2023-04-06T15:43:18;12.90;47.90
42095;DHT22;27753;55.724;37.612;2023-04-06T15:45:44;12.90;48.30
42095;DHT22;27753;55.724;37.612;2023-04-06T15:48:10;12.80;48.00
42095;DHT22;27753;55.724;37.612;2023-04-06T15:50:36;12.80;48.40
42095;DHT22;27753;55.724;37.612;2023-04-06T15:53:02;12.70;48.40
42095;DHT22;27753;55.724;37.612;2023-04-06T15:55:29;12.70;48.60
42095;DHT22;27753;55.724;37.612;2023-04-06T15:57:55;12.60;48.40
42095;DHT22;27753;55.724;37.612;2023-04-06T16:00:21;12.60;48.30
42095;DHT22;27753;55.724;37.612;2023-04-06T16:02:47;12.60;48.10
42095;DHT22;27753;55.724;37.612;2023-04-06T16:05:13;12.50;48.00
42095;DHT22;27753;55.724;37.612;2023-04-06T16:07:39;12.50;48.10
42095;DHT22;27753;55.724;37.612;2023-04-06T16:10:05;12.50;48.30